Time;durP1;ratioP1;P1;durP2;ratioP2;P2;SDS_P1;SDS_P2;PMS_P1;PMS_P2;Temp;Humidity;BMP_temperature;BMP_pressure;BME280_temperature;BME280_humidity;BME280_pressure;Samples;Min_cycle;Max_cycle;Signal;HPM_P1;HPM_P2
2022/11/10 00:01:55;;;;;;;14.48;4.07;;;;;;;10.32;97.25;101090.53;4909713;29;20049;-78
2022/11/10 00:04:22;;;;;;;10.63;3.60;;;;;;;10.27;97.10;101083.13;4915201;29;20076;-80
2022/11/10 00:06:49;;;;;;;9.77;3.80;;;;;;;10.28;97.13;101090.00;4917398;29;20052;-79
2022/11/10 00:09:17;;;;;;;15.20;5.07;;;;;;;10.27;97.11;101086.56;4917016;29;20086;-78
2022/11/10 00:11:43;;;;;;;8.65;3.80;;;;;;;10.23;97.31;101106.13;4915528;29;20071;-79
2022/11/10 00:17:03;;;;;;;9.95;3.90;;;;;;;10.26;97.32;101105.84;4906703;29;20064;-82
2022/11/10 00:19:30;;;;;;;13.60;4.10;;;;;;;10.15;98.24;101111.19;4904308;29;20059;-81
2022/11/10 00:21:56;;;;;;;12.55;4.03;;;;;;;10.13;98.36;101107.91;4902387;29;20161;-83
2022/11/10 00:24:25;;;;;;;13.10;4.00;;;;;;;10.12;98.11;101111.47;4902149;29;20084;-79
2022/11/10 00:26:51;;;;;;;16.63;3.97;;;;;;;10.13;98.61;101118.34;4912162;29;20058;-80
2022/11/10 00:29:18;;;;;;;13.60;3.83;;;;;;;10.11;98.24;101111.63;4906473;29;20068;-79
2022/11/10 00:31:45;;;;;;;11.45;4.10;;;;;;;10.02;98.47;101107.22;4914368;29;20079;-79
2022/11/10 00:34:14;;;;;;;12.43;4.22;;;;;;;10.01;99.00;101119.47;4922717;29;20155;-78
2022/11/10 00:36:44;;;;;;;19.33;4.13;;;;;;;9.96;99.04;101122.50;4922011;29;20526;-80
2022/11/10 00:39:14;;;;;;;12.38;3.97;;;;;;;9.93;99.44;101108.88;4925993;29;20159;-81
2022/11/10 00:41:42;;;;;;;15.23;4.55;;;;;;;9.87;99.56;101112.09;4931846;29;20040;-80
2022/11/10 00:44:09;;;;;;;13.75;4.25;;;;;;;9.82;99.47;101109.06;4920792;29;20064;-80
2022/11/10 00:46:35;;;;;;;14.32;4.20;;;;;;;9.85;99.53;101119.25;4916444;29;20063;-79
2022/11/10 00:49:06;;;;;;;15.35;3.83;;;;;;;9.77;99.86;101121.72;4905241;29;20075;-79
2022/11/10 00:51:32;;;;;;;11.80;4.20;;;;;;;9.71;99.79;101122.28;4903547;29;20136;-80
2022/11/10 00:53:59;;;;;;;21.60;4.00;;;;;;;9.76;99.89;101135.75;4916905;29;20048;-81
2022/11/10 00:56:26;;;;;;;15.38;3.95;;;;;;;9.74;99.72;101133.28;4922622;29;20083;-80
2022/11/10 00:58:54;;;;;;;17.10;3.97;;;;;;;9.64;100.00;101133.28;4922946;29;20052;-79
2022/11/10 01:01:23;;;;;;;12.23;4.45;;;;;;;9.69;100.00;101145.94;4917276;29;20143;-80
2022/11/10 01:03:50;;;;;;;16.70;4.43;;;;;;;9.65;99.90;101150.59;4904573;29;20060;-78
2022/11/10 01:06:18;;;;;;;13.02;3.95;;;;;;;9.65;100.00;101160.22;4903509;29;20060;-79
2022/11/10 01:08:46;;;;;;;17.38;4.38;;;;;;;9.61;100.00;101151.00;4902222;29;20056;-78
2022/11/10 01:11:15;;;;;;;11.25;3.88;;;;;;;9.55;100.00;101160.22;4917646;29;20538;-81
2022/11/10 01:13:42;;;;;;;14.32;4.05;;;;;;;9.54;100.00;101160.34;4904774;29;20093;-81
2022/11/10 01:16:13;;;;;;;11.00;4.03;;;;;;;9.55;100.00;101154.16;4906845;29;20067;-82
2022/11/10 01:18:41;;;;;;;13.77;4.40;;;;;;;9.45;100.00;101154.16;4917050;29;20111;-83
2022/11/10 01:21:11;;;;;;;10.75;3.85;;;;;;;9.43;100.00;101156.09;4904960;29;20045;-83
2022/11/10 01:23:38;;;;;;;13.63;4.50;;;;;;;9.35;100.00;101158.56;4904654;29;20059;-81
2022/11/10 01:26:06;;;;;;;9.23;4.07;;;;;;;9.37;100.00;101167.09;4925427;23;20119;-80
2022/11/10 01:28:34;;;;;;;16.33;4.32;;;;;;;9.37;100.00;101167.09;4910246;29;20131;-80
2022/11/10 01:31:03;;;;;;;17.73;5.07;;;;;;;9.38;100.00;101166.13;4906772;29;20103;-80
2022/11/10 01:33:31;;;;;;;18.30;4.75;;;;;;;9.35;100.00;101176.03;4906013;29;20095;-81
2022/11/10 01:35:59;;;;;;;13.95;4.85;;;;;;;9.46;100.00;101181.09;4910771;29;20131;-81
2022/11/10 01:38:27;;;;;;;14.32;4.32;;;;;;;9.45;100.00;101185.50;4908276;29;20052;-81
2022/11/10 01:40:54;;;;;;;9.82;3.78;;;;;;;9.44;100.00;101183.06;4911257;29;20068;-80
2022/11/10 01:43:21;;;;;;;11.32;4.13;;;;;;;9.43;100.00;101182.22;4907461;29;20104;-79
2022/11/10 01:45:52;;;;;;;12.80;4.45;;;;;;;9.39;100.00;101180.84;4908847;29;20076;-79
2022/11/10 01:48:28;;;;;;;13.55;4.00;;;;;;;9.35;100.00;101171.63;4906972;29;20468;-80
2022/11/10 01:51:00;;;;;;;13.52;4.15;;;;;;;9.38;100.00;101179.19;4912241;29;20075;-79
2022/11/10 01:53:29;;;;;;;19.40;4.30;;;;;;;9.25;100.00;101179.44;4916413;29;20071;-81
2022/11/10 01:55:56;;;;;;;15.20;4.28;;;;;;;9.28;100.00;101183.56;4920797;29;20059;-79
2022/11/10 01:58:28;;;;;;;15.18;4.22;;;;;;;9.20;100.00;101183.41;4909360;29;20052;-79
2022/11/10 02:00:55;;;;;;;18.15;4.35;;;;;;;9.15;100.00;101182.97;4914748;29;20075;-81
2022/11/10 02:03:29;;;;;;;19.45;4.63;;;;;;;9.05;100.00;101180.31;4924477;29;20531;-80
2022/11/10 02:05:57;;;;;;;17.35;4.00;;;;;;;9.06;100.00;101200.25;4933278;29;20056;-79
2022/11/10 02:08:25;;;;;;;21.35;6.05;;;;;;;9.11;100.00;101207.69;4927827;29;20055;-79
2022/11/10 02:10:51;;;;;;;14.13;3.88;;;;;;;9.19;100.00;101210.47;4920689;29;20086;-78
2022/11/10 02:13:18;;;;;;;18.48;4.40;;;;;;;9.14;100.00;101213.47;4929705;29;20099;-79
2022/11/10 02:15:45;;;;;;;18.38;4.45;;;;;;;9.11;100.00;101223.34;4925181;29;20527;-78
2022/11/10 02:18:11;;;;;;;14.80;4.00;;;;;;;9.13;100.00;101226.66;4925481;29;20138;-80
2022/11/10 02:20:38;;;;;;;10.85;4.05;;;;;;;9.08;100.00;101215.78;4927150;29;20075;-79
2022/11/10 02:23:14;;;;;;;10.93;3.65;;;;;;;9.01;100.00;101214.66;4920780;29;20527;-79
2022/11/10 02:25:41;;;;;;;16.55;4.40;;;;;;;8.95;100.00;101209.03;4914858;29;20080;-79
2022/11/10 02:28:08;;;;;;;14.27;4.00;;;;;;;9.02;100.00;101213.69;4910161;29;20087;-80
2022/11/10 02:30:35;;;;;;;12.63;4.03;;;;;;;9.02;100.00;101218.91;4905368;29;20078;-80
2022/11/10 02:33:02;;;;;;;21.50;5.38;;;;;;;8.96;100.00;101226.34;4907532;29;20486;-80
2022/11/10 02:35:29;;;;;;;15.85;4.38;;;;;;;8.98;100.00;101234.84;4909987;29;20063;-79
2022/11/10 02:37:55;;;;;;;13.52;4.13;;;;;;;8.97;100.00;101238.44;4906132;29;20095;-80
2022/11/10 02:40:23;;;;;;;14.52;4.10;;;;;;;8.96;100.00;101242.00;4913498;29;20084;-79
2022/11/10 02:42:50;;;;;;;15.18;3.72;;;;;;;8.95;100.00;101229.91;4921165;29;20516;-78
2022/11/10 02:45:17;;;;;;;17.02;4.20;;;;;;;8.97;100.00;101242.84;4917248;29;20088;-78
2022/11/10 02:47:43;;;;;;;19.77;5.22;;;;;;;9.01;100.00;101245.97;4905509;29;20080;-79
2022/11/10 02:50:10;;;;;;;14.60;4.53;;;;;;;9.03;100.00;101237.06;4904574;29;20115;-79
2022/11/10 02:52:36;;;;;;;19.38;4.63;;;;;;;9.07;100.00;101243.66;4910683;29;20469;-78
2022/11/10 02:55:03;;;;;;;16.27;3.95;;;;;;;8.99;100.00;101228.66;4920679;29;20095;-78
2022/11/10 02:57:31;;;;;;;22.58;4.47;;;;;;;8.97;100.00;101228.00;4908071;29;20099;-78
2022/11/10 02:59:58;;;;;;;17.40;4.35;;;;;;;8.95;100.00;101239.53;4911309;29;20530;-78
2022/11/10 03:02:25;;;;;;;19.63;4.28;;;;;;;8.94;100.00;101230.88;4915953;29;20092;-78
2022/11/10 03:04:51;;;;;;;14.23;4.03;;;;;;;8.95;100.00;101252.56;4908857;29;20080;-78
2022/11/10 03:07:18;;;;;;;18.23;4.53;;;;;;;8.95;100.00;101260.41;4908160;29;20053;-80
2022/11/10 03:09:44;;;;;;;20.33;4.70;;;;;;;9.06;100.00;101262.06;4914112;29;20076;-79
2022/11/10 03:12:11;;;;;;;16.83;4.40;;;;;;;9.07;100.00;101271.56;4927061;29;20072;-79
2022/11/10 03:14:39;;;;;;;12.90;4.20;;;;;;;9.10;100.00;101269.53;4928321;29;20090;-79
2022/11/10 03:17:05;;;;;;;16.83;4.32;;;;;;;9.14;100.00;101276.13;4921386;29;20108;-78
2022/11/10 03:19:32;;;;;;;16.67;4.72;;;;;;;9.22;100.00;101284.16;4920378;29;20059;-79
2022/11/10 03:21:59;;;;;;;22.08;5.38;;;;;;;9.28;100.00;101283.63;4929592;29;20055;-79
2022/11/10 03:24:25;;;;;;;15.15;4.18;;;;;;;9.31;100.00;101278.13;4929217;29;20056;-79
2022/11/10 03:26:52;;;;;;;16.92;4.15;;;;;;;9.29;100.00;101279.22;4929150;29;20108;-79
2022/11/10 03:29:19;;;;;;;11.15;3.78;;;;;;;9.28;100.00;101291.47;4911505;29;20127;-80
2022/11/10 03:31:47;;;;;;;21.65;4.57;;;;;;;9.28;100.00;101295.84;4911417;29;20062;-80
2022/11/10 03:34:13;;;;;;;15.23;3.70;;;;;;;9.31;100.00;101267.69;4914875;29;20121;-80
2022/11/10 03:36:40;;;;;;;16.60;3.90;;;;;;;9.31;100.00;101266.88;4915368;29;20081;-82
2022/11/10 03:39:06;;;;;;;18.38;4.30;;;;;;;9.30;100.00;101273.03;4914122;29;20557;-81
2022/11/10 03:41:33;;;;;;;19.70;5.00;;;;;;;9.29;100.00;101274.00;4927167;29;20107;-79
2022/11/10 03:43:59;;;;;;;14.95;4.40;;;;;;;9.26;100.00;101289.94;4926995;29;20108;-79
2022/11/10 03:46:26;;;;;;;17.00;3.72;;;;;;;9.34;100.00;101287.50;4925071;29;20139;-80
2022/11/10 03:48:54;;;;;;;18.48;4.15;;;;;;;9.46;100.00;101301.25;4926247;29;20079;-80
2022/11/10 03:51:21;;;;;;;14.23;4.57;;;;;;;9.50;100.00;101292.19;4920738;29;20048;-80
2022/11/10 03:53:48;;;;;;;17.70;3.92;;;;;;;9.53;100.00;101295.38;4921833;29;20078;-79
2022/11/10 03:56:14;;;;;;;17.38;4.75;;;;;;;9.49;100.00;101296.59;4927561;29;20116;-80
2022/11/10 03:58:41;;;;;;;18.92;4.72;;;;;;;9.48;100.00;101294.94;4926742;29;20076;-79
2022/11/10 04:01:08;;;;;;;12.93;3.92;;;;;;;9.48;100.00;101309.78;4923786;29;20123;-79
2022/11/10 04:03:34;;;;;;;16.92;4.22;;;;;;;9.44;100.00;101309.25;4907861;29;20313;-79
2022/11/10 04:09:01;;;;;;;38.80;6.03;;;;;;;9.45;100.00;101310.09;4921340;29;20058;-80
2022/11/10 04:16:58;;;;;;;16.75;4.20;;;;;;;9.31;100.00;101335.59;4909299;29;20101;-80
2022/11/10 04:19:25;;;;;;;16.58;4.43;;;;;;;9.41;100.00;101342.66;4907987;29;20136;-80
2022/11/10 04:21:53;;;;;;;20.05;5.32;;;;;;;9.39;100.00;101341.97;4907986;29;20076;-79
2022/11/10 04:24:20;;;;;;;19.13;4.15;;;;;;;9.35;100.00;101351.84;4922300;29;20063;-79
2022/11/10 04:26:47;;;;;;;14.13;4.40;;;;;;;9.29;100.00;101357.56;4915334;29;20071;-80
2022/11/10 04:29:15;;;;;;;17.05;4.47;;;;;;;9.29;100.00;101362.78;4927443;29;20056;-80
2022/11/10 04:31:42;;;;;;;17.95;4.25;;;;;;;9.22;100.00;101369.50;4927659;29;20048;-79
2022/11/10 04:34:11;;;;;;;15.98;4.35;;;;;;;9.24;100.00;101375.41;4927307;29;20080;-80
2022/11/10 04:36:39;;;;;;;14.38;4.30;;;;;;;9.22;100.00;101372.94;4926934;29;20115;-79
2022/11/10 04:39:09;;;;;;;14.18;4.00;;;;;;;9.23;100.00;101385.03;4926417;29;20099;-79
2022/11/10 04:41:36;;;;;;;16.50;4.13;;;;;;;9.25;100.00;101387.50;4926665;29;20059;-80
2022/11/10 04:44:03;;;;;;;21.33;4.38;;;;;;;9.10;100.00;101373.13;4917341;29;20052;-79
2022/11/10 04:46:32;;;;;;;16.00;4.03;;;;;;;9.03;100.00;101378.03;4918253;29;20048;-79
2022/11/10 04:49:00;;;;;;;14.32;4.07;;;;;;;8.99;100.00;101398.34;4908657;29;20088;-79
2022/11/10 04:51:28;;;;;;;16.08;4.90;;;;;;;8.98;100.00;101396.69;4921308;29;20071;-80
2022/11/10 04:53:55;;;;;;;13.80;4.28;;;;;;;8.97;100.00;101389.84;4926804;29;20058;-81
2022/11/10 04:56:24;;;;;;;13.82;4.35;;;;;;;8.91;100.00;101398.16;4927488;29;20082;-81
2022/11/10 04:58:51;;;;;;;20.45;4.50;;;;;;;8.83;100.00;101397.13;4924840;29;20128;-81
2022/11/10 05:01:20;;;;;;;19.13;4.68;;;;;;;8.80;100.00;101393.00;4915933;29;20090;-80
2022/11/10 05:03:48;;;;;;;22.17;4.63;;;;;;;8.90;100.00;101406.94;4923944;29;20554;-80
2022/11/10 05:06:15;;;;;;;18.63;5.30;;;;;;;8.97;100.00;101415.09;4925365;29;20075;-80
2022/11/10 05:08:43;;;;;;;17.40;3.65;;;;;;;8.93;100.00;101419.75;4925776;29;20052;-80
2022/11/10 05:11:10;;;;;;;13.20;4.22;;;;;;;8.87;100.00;101417.66;4924944;29;20055;-81
2022/11/10 05:13:39;;;;;;;17.45;4.70;;;;;;;8.82;100.00;101425.00;4925491;29;20094;-79
2022/11/10 05:16:07;;;;;;;20.38;4.72;;;;;;;8.69;100.00;101416.53;4962887;23;20068;-80
2022/11/10 05:18:34;;;;;;;25.77;5.07;;;;;;;8.69;100.00;101426.97;4924137;29;20132;-81
2022/11/10 05:21:01;;;;;;;19.00;4.03;;;;;;;8.66;100.00;101440.25;4930233;29;20056;-81
2022/11/10 05:23:42;;;;;;;19.90;4.40;;;;;;;8.63;100.00;101446.53;4925114;29;20472;-81
2022/11/10 05:26:12;;;;;;;10.20;3.53;;;;;;;8.59;100.00;101447.75;4924462;29;20052;-80
2022/11/10 05:28:41;;;;;;;16.55;4.65;;;;;;;8.76;100.00;101451.59;4924359;29;20079;-80
2022/11/10 05:31:08;;;;;;;15.05;4.25;;;;;;;8.76;100.00;101449.00;4963332;23;20090;-80
2022/11/10 05:33:37;;;;;;;16.63;4.18;;;;;;;8.76;100.00;101462.03;4917747;29;20113;-81
2022/11/10 05:36:05;;;;;;;15.93;4.15;;;;;;;8.73;100.00;101451.84;4924232;29;20499;-81
2022/11/10 05:38:32;;;;;;;16.33;4.38;;;;;;;8.64;100.00;101456.03;4923495;29;20559;-79
2022/11/10 05:40:59;;;;;;;22.63;4.32;;;;;;;8.74;100.00;101461.34;4921224;29;20519;-81
2022/11/10 05:43:26;;;;;;;20.02;4.93;;;;;;;8.71;100.00;101466.81;4921849;29;20100;-80
2022/11/10 05:45:54;;;;;;;13.75;4.20;;;;;;;8.65;100.00;101475.13;4919893;29;20044;-80
2022/11/10 05:48:20;;;;;;;19.60;4.20;;;;;;;8.67;100.00;101480.22;4918083;29;20534;-80
2022/11/10 05:50:47;;;;;;;18.50;4.72;;;;;;;8.63;100.00;101474.41;4918148;29;20263;-80
2022/11/10 05:53:13;;;;;;;16.80;4.00;;;;;;;8.58;100.00;101485.22;4920180;29;20048;-80
2022/11/10 05:55:40;;;;;;;19.70;4.65;;;;;;;8.64;100.00;101483.91;4920989;29;20079;-80
2022/11/10 05:58:07;;;;;;;19.58;5.32;;;;;;;8.57;100.00;101487.94;4920413;29;20090;-81
2022/11/10 06:00:34;;;;;;;19.63;4.78;;;;;;;8.56;100.00;101492.34;4920131;29;20073;-81
2022/11/10 06:03:04;;;;;;;19.55;5.57;;;;;;;8.54;100.00;101501.22;4921724;29;20054;-81
2022/11/10 06:05:32;;;;;;;18.45;4.22;;;;;;;8.35;100.00;101486.22;4920625;29;20052;-81
2022/11/10 06:08:00;;;;;;;15.27;4.22;;;;;;;8.44;100.00;101501.16;4921129;29;20056;-80
2022/11/10 06:10:27;;;;;;;13.60;3.92;;;;;;;8.38;100.00;101512.06;4921365;29;20050;-81
2022/11/10 06:12:54;;;;;;;16.58;4.32;;;;;;;8.43;100.00;101515.13;4919461;29;20048;-80
2022/11/10 06:15:22;;;;;;;17.05;4.45;;;;;;;8.36;100.00;101515.75;4919524;29;20183;-78
2022/11/10 06:17:49;;;;;;;13.68;4.30;;;;;;;8.30;100.00;101509.19;4919924;29;20523;-81
2022/11/10 06:20:18;;;;;;;20.75;4.80;;;;;;;8.32;100.00;101518.59;4919956;29;20171;-80
2022/11/10 06:22:45;;;;;;;20.35;3.97;;;;;;;8.29;100.00;101529.22;4921806;29;20073;-82
2022/11/10 06:25:12;;;;;;;19.63;4.28;;;;;;;8.32;100.00;101531.63;4922165;29;20089;-80
2022/11/10 06:27:43;;;;;;;10.23;3.80;;;;;;;8.34;100.00;101530.69;4928301;29;20484;-81
2022/11/10 06:30:11;;;;;;;19.40;4.53;;;;;;;8.38;100.00;101548.56;4922122;29;20137;-78
2022/11/10 06:32:42;;;;;;;24.23;6.22;;;;;;;8.42;100.00;101538.72;4923968;29;20083;-79
2022/11/10 06:35:09;;;;;;;19.70;4.60;;;;;;;8.45;100.00;101538.50;4926077;29;20135;-79
2022/11/10 06:37:38;;;;;;;29.73;4.82;;;;;;;8.51;100.00;101546.66;4927564;29;20055;-79
2022/11/10 06:40:06;;;;;;;18.33;4.78;;;;;;;8.51;100.00;101548.41;4924160;29;20072;-79
2022/11/10 06:42:33;;;;;;;15.77;4.18;;;;;;;8.48;100.00;101549.53;4924432;29;20079;-79
2022/11/10 06:45:00;;;;;;;17.27;4.13;;;;;;;8.32;100.00;101555.09;4923803;29;20130;-79
2022/11/10 06:47:27;;;;;;;14.38;4.43;;;;;;;8.08;100.00;101549.13;4918297;29;20059;-79
2022/11/10 06:49:54;;;;;;;15.93;4.53;;;;;;;7.91;100.00;101560.84;4918587;29;20079;-79
2022/11/10 06:52:20;;;;;;;14.20;4.40;;;;;;;7.82;100.00;101563.31;4918601;29;20044;-78
2022/11/10 06:54:48;;;;;;;17.88;4.20;;;;;;;7.78;100.00;101567.09;4919282;29;20075;-79
2022/11/10 06:57:15;;;;;;;17.58;5.32;;;;;;;7.73;100.00;101583.06;4912305;29;20127;-80
2022/11/10 06:59:42;;;;;;;18.60;4.65;;;;;;;7.64;100.00;101581.97;4921261;29;20056;-80
2022/11/10 07:02:21;;;;;;;17.75;4.75;;;;;;;7.64;100.00;101600.19;4920731;29;20131;-79
2022/11/10 07:04:49;;;;;;;17.55;4.22;;;;;;;7.64;100.00;101594.16;4919202;29;20515;-79
2022/11/10 07:07:21;;;;;;;14.98;4.80;;;;;;;7.65;100.00;101603.63;4919047;29;20056;-79
2022/11/10 07:09:49;;;;;;;11.85;4.10;;;;;;;7.69;100.00;101609.44;4920483;29;20048;-76
2022/11/10 07:12:16;;;;;;;21.05;4.88;;;;;;;7.74;100.00;101609.94;4917859;29;20054;-79
2022/11/10 07:14:42;;;;;;;13.82;5.25;;;;;;;7.82;100.00;101615.41;4922591;29;20044;-78
2022/11/10 07:17:09;;;;;;;15.50;5.57;;;;;;;7.94;100.00;101630.97;4918663;29;20125;-78
2022/11/10 07:19:36;;;;;;;17.75;5.13;;;;;;;8.05;100.00;101621.50;4918464;29;20179;-77
2022/11/10 07:22:02;;;;;;;16.85;4.72;;;;;;;8.12;100.00;101626.13;4914326;29;20135;-79
2022/11/10 07:24:29;;;;;;;19.55;5.88;;;;;;;8.04;100.00;101628.50;4917661;29;20087;-78
2022/11/10 07:26:57;;;;;;;20.42;5.20;;;;;;;7.97;100.00;101637.75;4922767;29;20083;-80
2022/11/10 07:29:24;;;;;;;19.88;5.35;;;;;;;8.06;100.00;101642.25;4920336;29;20176;-77
2022/11/10 07:31:51;;;;;;;23.50;5.00;;;;;;;8.08;100.00;101640.34;4917330;29;20111;-79
2022/11/10 07:34:18;;;;;;;12.93;4.55;;;;;;;8.26;100.00;101645.97;4917884;29;20095;-77
2022/11/10 07:36:45;;;;;;;16.50;5.32;;;;;;;8.68;100.00;101651.47;4919283;29;20131;-77
2022/11/10 07:39:12;;;;;;;16.85;6.15;;;;;;;8.92;100.00;101653.00;4919932;29;20087;-78
2022/11/10 07:41:39;;;;;;;23.27;5.75;;;;;;;9.15;100.00;101655.56;4917132;29;20181;-78
2022/11/10 07:44:07;;;;;;;16.42;5.25;;;;;;;9.45;100.00;101660.94;4917679;29;20134;-78
2022/11/10 07:46:33;;;;;;;17.95;4.22;;;;;;;9.80;100.00;101665.09;4918078;29;20479;-79
2022/11/10 07:49:00;;;;;;;16.17;5.00;;;;;;;9.96;100.00;101658.47;4918472;29;20082;-78
2022/11/10 07:51:27;;;;;;;17.02;4.72;;;;;;;10.05;99.06;101656.06;4919842;29;20083;-79
2022/11/10 07:53:53;;;;;;;16.42;4.50;;;;;;;10.32;97.85;101655.56;4918407;29;20567;-79
2022/11/10 07:56:20;;;;;;;15.38;4.95;;;;;;;10.43;96.39;101658.09;4919084;29;20138;-78
2022/11/10 07:58:47;;;;;;;16.80;4.40;;;;;;;10.54;96.01;101664.06;4917800;29;20052;-78
2022/11/10 08:01:15;;;;;;;19.05;4.75;;;;;;;10.84;95.30;101663.25;4917705;29;20052;-77
2022/11/10 08:03:42;;;;;;;21.15;6.07;;;;;;;10.85;94.51;101671.94;4918581;29;20146;-78
2022/11/10 08:06:08;;;;;;;18.20;6.05;;;;;;;11.08;92.47;101681.22;4918162;29;20071;-78
2022/11/10 08:08:35;;;;;;;20.38;5.80;;;;;;;11.21;92.23;101679.19;4918124;29;20139;-79
2022/11/10 08:11:01;;;;;;;13.90;4.80;;;;;;;11.30;91.60;101682.81;4918158;29;20083;-78
2022/11/10 08:13:28;;;;;;;41.58;19.90;;;;;;;11.33;91.31;101706.13;4918167;29;20084;-78
2022/11/10 08:15:57;;;;;;;18.45;5.53;;;;;;;11.28;90.69;101703.09;4917992;29;20107;-77
2022/11/10 08:18:25;;;;;;;17.73;7.20;;;;;;;11.26;91.03;101707.63;4917281;29;20052;-79
2022/11/10 08:20:52;;;;;;;41.55;26.48;;;;;;;11.23;91.10;101715.75;4917144;29;20540;-78
2022/11/10 08:23:19;;;;;;;19.10;7.15;;;;;;;11.04;91.72;101715.69;4918290;29;20044;-77
2022/11/10 08:25:45;;;;;;;28.23;14.30;;;;;;;10.86;92.92;101711.09;4916953;29;20464;-77
2022/11/10 08:28:14;;;;;;;20.88;8.02;;;;;;;10.70;93.88;101710.72;4916297;29;20060;-77
2022/11/10 08:30:43;;;;;;;31.05;11.80;;;;;;;10.73;94.54;101722.72;4918842;29;20066;-78
2022/11/10 08:33:12;;;;;;;36.90;18.48;;;;;;;10.69;94.79;101722.16;4915375;29;20071;-77
2022/11/10 08:35:41;;;;;;;26.85;12.35;;;;;;;10.74;94.98;101719.97;4915132;29;20054;-77
2022/11/10 08:38:09;;;;;;;24.30;9.85;;;;;;;10.74;94.93;101719.16;4914585;29;20098;-78
2022/11/10 08:40:36;;;;;;;24.50;12.75;;;;;;;10.74;95.05;101727.00;4916135;29;20182;-77
2022/11/10 08:43:06;;;;;;;29.48;14.68;;;;;;;10.80;95.06;101729.09;4915962;29;20059;-77
2022/11/10 08:45:33;;;;;;;18.00;8.50;;;;;;;10.88;95.05;101743.19;4916063;29;20048;-79
2022/11/10 08:48:00;;;;;;;20.27;7.03;;;;;;;10.88;94.86;101743.19;4914193;29;20143;-75
2022/11/10 08:50:27;;;;;;;22.75;8.88;;;;;;;10.92;95.08;101755.03;4911441;29;20127;-77
2022/11/10 08:52:55;;;;;;;26.30;9.75;;;;;;;10.93;95.46;101751.47;4916133;29;20076;-76
2022/11/10 08:55:22;;;;;;;17.75;4.43;;;;;;;10.97;95.31;101752.88;4915734;29;20130;-78
2022/11/10 08:57:49;;;;;;;15.32;4.63;;;;;;;11.00;95.23;101759.63;4918440;29;20134;-77
2022/11/10 09:00:17;;;;;;;16.70;7.95;;;;;;;11.07;95.14;101757.31;4915954;29;20091;-78
2022/11/10 09:02:43;;;;;;;10.60;4.45;;;;;;;11.14;95.26;101759.28;4915887;29;20091;-77
2022/11/10 09:05:10;;;;;;;16.63;4.18;;;;;;;11.15;95.10;101758.31;4914056;29;20135;-77
2022/11/10 09:07:43;;;;;;;12.57;4.18;;;;;;;11.18;95.13;101765.09;4915877;29;20511;-77
2022/11/10 09:10:12;;;;;;;15.23;4.00;;;;;;;11.25;94.95;101753.13;4913391;29;20062;-77
2022/11/10 09:12:39;;;;;;;12.43;3.78;;;;;;;11.31;94.56;101768.31;4915759;29;20060;-76
2022/11/10 09:15:08;;;;;;;13.65;4.18;;;;;;;11.36;94.44;101766.09;4914815;29;20139;-77
2022/11/10 09:17:34;;;;;;;20.27;4.47;;;;;;;11.42;94.77;101781.28;4914709;29;20523;-77
2022/11/10 09:20:01;;;;;;;14.40;4.25;;;;;;;11.49;94.08;101785.03;4913130;29;20083;-77
2022/11/10 09:22:28;;;;;;;17.25;4.07;;;;;;;11.55;93.81;101779.28;4914786;29;20123;-77
2022/11/10 09:24:54;;;;;;;15.38;4.00;;;;;;;11.55;94.01;101771.41;4915222;29;20140;-78
2022/11/10 09:27:22;;;;;;;15.93;3.97;;;;;;;11.57;94.19;101772.09;4916134;29;20112;-77
2022/11/10 09:29:49;;;;;;;12.93;3.92;;;;;;;11.66;94.19;101785.38;4915506;29;20044;-78
2022/11/10 09:32:16;;;;;;;12.57;4.43;;;;;;;11.73;93.95;101776.00;4915899;29;20107;-78
2022/11/10 09:34:43;;;;;;;16.23;4.32;;;;;;;11.80;94.01;101777.16;4916269;29;20142;-78
2022/11/10 09:37:09;;;;;;;17.48;4.97;;;;;;;11.79;93.49;101778.13;4919107;29;20059;-79
2022/11/10 09:39:36;;;;;;;16.27;4.03;;;;;;;11.92;93.41;101782.13;4919114;29;20072;-78
2022/11/10 09:42:05;;;;;;;12.07;3.83;;;;;;;11.96;93.13;101777.44;4918080;29;20103;-78
2022/11/10 09:44:39;;;;;;;13.90;3.75;;;;;;;12.03;92.54;101773.28;4919565;29;20084;-78
2022/11/10 09:47:13;;;;;;;14.75;4.63;;;;;;;12.12;92.51;101777.72;4920595;29;20052;-77
2022/11/10 09:49:42;;;;;;;17.67;4.35;;;;;;;12.21;92.45;101782.16;4918820;29;20047;-78
2022/11/10 09:52:12;;;;;;;14.07;4.15;;;;;;;12.24;92.23;101781.88;4918230;29;20413;-78
2022/11/10 09:54:43;;;;;;;16.48;4.03;;;;;;;12.32;91.96;101790.81;4913350;29;20546;-78
2022/11/10 09:57:14;;;;;;;17.00;4.22;;;;;;;12.44;91.34;101797.59;4918745;29;20135;-79
2022/11/10 09:59:44;;;;;;;18.92;4.47;;;;;;;12.53;90.97;101788.88;4916607;29;20048;-79
2022/11/10 10:02:20;;;;;;;13.10;4.32;;;;;;;12.57;91.00;101804.22;4918470;29;20499;-76
2022/11/10 10:05:16;;;;;;;16.08;4.65;;;;;;;12.57;90.80;101783.19;4914953;29;20543;-78
2022/11/10 10:07:51;;;;;;;15.50;3.75;;;;;;;12.68;90.94;101795.34;4903892;29;20052;-77
2022/11/10 10:10:27;;;;;;;15.63;4.03;;;;;;;12.72;91.06;101801.16;4913610;29;20163;-79
2022/11/10 10:13:07;;;;;;;16.38;4.28;;;;;;;12.80;90.52;101798.63;4915220;29;20044;-79
2022/11/10 10:15:44;;;;;;;14.07;4.22;;;;;;;12.82;90.68;101797.50;4916619;29;20100;-80
2022/11/10 10:18:24;;;;;;;14.00;3.58;;;;;;;12.95;90.20;101795.41;4919420;29;20413;-79
2022/11/10 10:21:10;;;;;;;14.50;4.25;;;;;;;13.03;89.49;101804.38;4919643;29;20116;-79
2022/11/10 10:23:41;;;;;;;18.75;4.85;;;;;;;13.20;89.17;101803.66;4919962;29;20095;-78
2022/11/10 10:26:12;;;;;;;10.82;3.50;;;;;;;13.23;88.37;101808.63;4918884;29;20057;-79
2022/11/10 10:28:44;;;;;;;13.93;3.88;;;;;;;13.24;87.43;101807.63;4919723;29;20067;-78
2022/11/10 10:31:17;;;;;;;15.80;4.28;;;;;;;13.29;87.68;101805.41;4919172;29;20076;-79
2022/11/10 10:33:44;;;;;;;18.00;4.03;;;;;;;13.43;86.71;101802.28;4917782;29;20115;-78
2022/11/10 10:36:18;;;;;;;14.88;3.65;;;;;;;13.38;86.32;101796.66;4915079;29;20135;-79
2022/11/10 10:38:47;;;;;;;17.80;4.18;;;;;;;13.45;86.20;101804.78;4919354;29;20480;-78
2022/11/10 10:41:24;;;;;;;13.27;3.92;;;;;;;13.55;85.18;101816.09;4916557;29;20144;-79
2022/11/10 10:43:54;;;;;;;14.05;3.78;;;;;;;13.59;84.17;101813.00;4917544;29;20131;-79
2022/11/10 10:46:25;;;;;;;9.57;3.40;;;;;;;13.60;84.03;101814.66;4918186;29;20083;-80
2022/11/10 10:49:08;;;;;;;16.60;3.72;;;;;;;13.57;83.31;101811.50;4918308;29;20054;-81
2022/11/10 10:51:35;;;;;;;;;;;;;;;13.71;82.51;101810.16;4917939;29;20083;-80
2022/11/10 10:54:04;;;;;;;14.98;3.70;;;;;;;13.80;82.41;101799.56;4918411;29;19970;-80
2022/11/10 10:56:32;;;;;;;14.35;4.55;;;;;;;14.01;81.29;101806.38;4916525;29;20091;-79
2022/11/10 10:59:03;;;;;;;13.25;3.67;;;;;;;13.95;80.44;101805.16;4913668;29;20056;-79
2022/11/10 11:01:32;;;;;;;15.80;4.07;;;;;;;14.03;80.05;101805.25;4907486;29;20080;-79
2022/11/10 11:04:00;;;;;;;15.77;3.97;;;;;;;14.09;79.77;101803.81;4922416;29;20459;-79
2022/11/10 11:06:28;;;;;;;11.27;3.97;;;;;;;14.23;79.84;101812.00;4915059;29;20464;-78
2022/11/10 11:08:57;;;;;;;15.82;3.33;;;;;;;14.20;79.40;101804.41;4926306;29;20147;-78
2022/11/10 11:11:27;;;;;;;14.27;3.53;;;;;;;14.29;78.91;101803.50;4918638;29;20517;-78
2022/11/10 11:14:12;;;;;;;16.27;4.07;;;;;;;14.39;78.80;101811.31;4925129;29;20050;-78
2022/11/10 11:16:48;;;;;;;14.30;4.05;;;;;;;14.36;78.42;101810.78;4918576;29;20079;-78
2022/11/10 11:19:15;;;;;;;12.00;2.97;;;;;;;14.44;77.85;101814.34;4919523;29;20090;-77
2022/11/10 11:21:54;;;;;;;12.27;2.92;;;;;;;14.53;77.48;101817.88;4919838;29;20054;-78
2022/11/10 11:24:32;;;;;;;13.25;3.70;;;;;;;14.61;77.43;101831.13;4920938;29;20147;-78
2022/11/10 11:27:04;;;;;;;10.30;2.78;;;;;;;14.62;76.69;101838.03;4920927;29;20090;-78
2022/11/10 11:30:04;;;;;;;12.40;3.47;;;;;;;14.60;76.89;101837.38;4920653;29;20150;-78
2022/11/10 11:35:07;;;;;;;11.52;3.25;;;;;;;14.56;77.01;101842.13;4928075;29;20048;-80
2022/11/10 11:37:41;;;;;;;15.98;3.50;;;;;;;14.55;75.74;101842.28;4944101;29;20048;-82